sensor_id;sensor_type;location;lat;lon;timestamp;pressure;altitude;pressure_sealevel;temperature;humidity
51287;BME280;37364;46.974;18.916;2023-04-30T00:01:10;153210.59;;;11.36;100.00
51287;BME280;37364;46.974;18.916;2023-04-30T00:03:40;153215.78;;;11.38;100.00
51287;BME280;37364;46.974;18.916;2023-04-30T00:06:10;153215.78;;;11.38;100.00
51287;BME280;37364;46.974;18.916;2023-04-30T00:08:40;153191.16;;;11.28;100.00
51287;BME280;37364;46.974;18.916;2023-04-30T00:11:11;153179.53;;;11.23;100.00
51287;BME280;37364;46.974;18.916;2023-04-30T00:13:44;153144.56;;;11.10;100.00
51287;BME280;37364;46.974;18.916;2023-04-30T00:16:14;153125.13;;;11.02;100.00
51287;BME280;37364;46.974;18.916;2023-04-30T00:18:44;153095.34;;;10.90;100.00
51287;BME280;37364;46.974;18.916;2023-04-30T00:21:14;153059.06;;;10.76;100.00
51287;BME280;37364;46.974;18.916;2023-04-30T00:23:44;153009.84;;;10.56;100.00
51287;BME280;37364;46.974;18.916;2023-04-30T00:26:15;152991.75;;;10.49;100.00
51287;BME280;37364;46.974;18.916;2023-04-30T00:28:50;153022.81;;;10.61;100.00
51287;BME280;37364;46.974;18.916;2023-04-30T00:31:21;153021.53;;;10.61;100.00
51287;BME280;37364;46.974;18.916;2023-04-30T00:33:54;153008.56;;;10.56;100.00
51287;BME280;37364;46.974;18.916;2023-04-30T00:36:24;152985.25;;;10.46;100.00
51287;BME280;37364;46.974;18.916;2023-04-30T00:38:54;152965.81;;;10.39;100.00
51287;BME280;37364;46.974;18.916;2023-04-30T00:41:24;152908.84;;;10.16;100.00
51287;BME280;37364;46.974;18.916;2023-04-30T00:43:57;152911.41;;;10.17;100.00
51287;BME280;37364;46.974;18.916;2023-04-30T00:46:28;152933.44;;;10.26;100.00
51287;BME280;37364;46.974;18.916;2023-04-30T00:48:58;152942.50;;;10.29;100.00
51287;BME280;37364;46.974;18.916;2023-04-30T00:51:31;152941.22;;;10.29;100.00
51287;BME280;37364;46.974;18.916;2023-04-30T00:54:02;152932.16;;;10.25;100.00
51287;BME280;37364;46.974;18.916;2023-04-30T00:56:32;152943.84;;;10.30;100.00
51287;BME280;37364;46.974;18.916;2023-04-30T00:59:05;152978.78;;;10.44;100.00
51287;BME280;37364;46.974;18.916;2023-04-30T01:01:36;152976.22;;;10.43;100.00
51287;BME280;37364;46.974;18.916;2023-04-30T01:04:08;152976.22;;;10.43;100.00
51287;BME280;37364;46.974;18.916;2023-04-30T01:06:38;152973.63;;;10.42;100.00
51287;BME280;37364;46.974;18.916;2023-04-30T01:09:09;152991.75;;;10.49;100.00
51287;BME280;37364;46.974;18.916;2023-04-30T01:11:48;153008.56;;;10.56;100.00
51287;BME280;37364;46.974;18.916;2023-04-30T01:14:39;153011.19;;;10.57;100.00
51287;BME280;37364;46.974;18.916;2023-04-30T01:17:16;153024.09;;;10.62;100.00
51287;BME280;37364;46.974;18.916;2023-04-30T01:19:47;153037.06;;;10.67;100.00
51287;BME280;37364;46.974;18.916;2023-04-30T01:22:30;153040.97;;;10.68;100.00
51287;BME280;37364;46.974;18.916;2023-04-30T01:25:23;153056.50;;;10.75;100.00
51287;BME280;37364;46.974;18.916;2023-04-30T01:28:04;153053.88;;;10.74;100.00
51287;BME280;37364;46.974;18.916;2023-04-30T01:30:37;153060.38;;;10.76;100.00
51287;BME280;37364;46.974;18.916;2023-04-30T01:33:11;153051.31;;;10.73;100.00
51287;BME280;37364;46.974;18.916;2023-04-30T01:36:09;153051.31;;;10.73;100.00
51287;BME280;37364;46.974;18.916;2023-04-30T01:39:06;153048.69;;;10.72;100.00
51287;BME280;37364;46.974;18.916;2023-04-30T01:41:47;153048.69;;;10.72;100.00
51287;BME280;37364;46.974;18.916;2023-04-30T01:44:44;153048.69;;;10.72;100.00
51287;BME280;37364;46.974;18.916;2023-04-30T01:47:23;153038.34;;;10.67;100.00
51287;BME280;37364;46.974;18.916;2023-04-30T01:50:04;153040.97;;;10.68;100.00
51287;BME280;37364;46.974;18.916;2023-04-30T01:52:40;153043.53;;;10.69;100.00
51287;BME280;37364;46.974;18.916;2023-04-30T01:55:19;153033.16;;;10.65;100.00
51287;BME280;37364;46.974;18.916;2023-04-30T01:57:55;153022.81;;;10.61;100.00
51287;BME280;37364;46.974;18.916;2023-04-30T02:00:29;153016.34;;;10.59;100.00
51287;BME280;37364;46.974;18.916;2023-04-30T02:03:00;152983.97;;;10.46;100.00
51287;BME280;37364;46.974;18.916;2023-04-30T02:05:30;152973.63;;;10.42;100.00
51287;BME280;37364;46.974;18.916;2023-04-30T02:08:01;152982.69;;;10.45;100.00
51287;BME280;37364;46.974;18.916;2023-04-30T02:10:32;152976.22;;;10.43;100.00
51287;BME280;37364;46.974;18.916;2023-04-30T02:13:02;152969.72;;;10.40;100.00
51287;BME280;37364;46.974;18.916;2023-04-30T02:15:35;152960.66;;;10.37;100.00
51287;BME280;37364;46.974;18.916;2023-04-30T02:18:06;152939.91;;;10.28;100.00
51287;BME280;37364;46.974;18.916;2023-04-30T02:20:36;152921.81;;;10.21;100.00
51287;BME280;37364;46.974;18.916;2023-04-30T02:23:06;152910.13;;;10.17;100.00
51287;BME280;37364;46.974;18.916;2023-04-30T02:25:36;152894.59;;;10.10;100.00
51287;BME280;37364;46.974;18.916;2023-04-30T02:28:07;152903.69;;;10.14;100.00
51287;BME280;37364;46.974;18.916;2023-04-30T02:30:40;152914.03;;;10.18;100.00
51287;BME280;37364;46.974;18.916;2023-04-30T02:33:10;152901.06;;;10.13;100.00
51287;BME280;37364;46.974;18.916;2023-04-30T02:35:41;152910.13;;;10.17;100.00
51287;BME280;37364;46.974;18.916;2023-04-30T02:38:11;152897.22;;;10.12;100.00
51287;BME280;37364;46.974;18.916;2023-04-30T02:40:41;152897.22;;;10.12;100.00
51287;BME280;37364;46.974;18.916;2023-04-30T02:43:11;152863.56;;;9.98;100.00
51287;BME280;37364;46.974;18.916;2023-04-30T02:45:44;152841.53;;;9.89;100.00
51287;BME280;37364;46.974;18.916;2023-04-30T02:48:15;152831.19;;;9.85;100.00
51287;BME280;37364;46.974;18.916;2023-04-30T02:50:45;152819.56;;;9.81;100.00
51287;BME280;37364;46.974;18.916;2023-04-30T02:53:15;152797.53;;;9.72;100.00
51287;BME280;37364;46.974;18.916;2023-04-30T02:55:46;152789.78;;;9.69;100.00
51287;BME280;37364;46.974;18.916;2023-04-30T02:58:17;152783.34;;;9.66;100.00
51287;BME280;37364;46.974;18.916;2023-04-30T03:00:50;152779.44;;;9.65;100.00
51287;BME280;37364;46.974;18.916;2023-04-30T03:03:20;152763.94;;;9.59;100.00
51287;BME280;37364;46.974;18.916;2023-04-30T03:05:50;152771.66;;;9.62;100.00
51287;BME280;37364;46.974;18.916;2023-04-30T03:08:22;152765.22;;;9.59;100.00
51287;BME280;37364;46.974;18.916;2023-04-30T03:10:53;152769.09;;;9.61;100.00
51287;BME280;37364;46.974;18.916;2023-04-30T03:13:23;152785.91;;;9.67;100.00
51287;BME280;37364;46.974;18.916;2023-04-30T03:16:00;152767.78;;;9.60;100.00
51287;BME280;37364;46.974;18.916;2023-04-30T03:18:31;152787.19;;;9.68;100.00
51287;BME280;37364;46.974;18.916;2023-04-30T03:21:01;152796.25;;;9.72;100.00
51287;BME280;37364;46.974;18.916;2023-04-30T03:23:31;152811.78;;;9.78;100.00
51287;BME280;37364;46.974;18.916;2023-04-30T03:26:02;152809.22;;;9.77;100.00
51287;BME280;37364;46.974;18.916;2023-04-30T03:28:32;152807.94;;;9.76;100.00
51287;BME280;37364;46.974;18.916;2023-04-30T03:31:05;152828.63;;;9.84;100.00
51287;BME280;37364;46.974;18.916;2023-04-30T03:33:35;152797.53;;;9.72;100.00
51287;BME280;37364;46.974;18.916;2023-04-30T03:36:06;152789.78;;;9.69;100.00
51287;BME280;37364;46.974;18.916;2023-04-30T03:38:36;152788.50;;;9.68;100.00
51287;BME280;37364;46.974;18.916;2023-04-30T03:41:06;152789.78;;;9.69;100.00
51287;BME280;37364;46.974;18.916;2023-04-30T03:43:37;152791.06;;;9.69;100.00
51287;BME280;37364;46.974;18.916;2023-04-30T03:46:09;152801.41;;;9.74;100.00
51287;BME280;37364;46.974;18.916;2023-04-30T03:48:40;152809.22;;;9.77;100.00
51287;BME280;37364;46.974;18.916;2023-04-30T03:51:10;152816.94;;;9.80;100.00
51287;BME280;37364;46.974;18.916;2023-04-30T03:53:40;152844.13;;;9.90;100.00
51287;BME280;37364;46.974;18.916;2023-04-30T03:56:11;152857.06;;;9.96;100.00
51287;BME280;37364;46.974;18.916;2023-04-30T03:58:41;152880.38;;;10.05;100.00
51287;BME280;37364;46.974;18.916;2023-04-30T04:01:14;152890.72;;;10.09;100.00
51287;BME280;37364;46.974;18.916;2023-04-30T04:03:45;152907.56;;;10.16;100.00
51287;BME280;37364;46.974;18.916;2023-04-30T04:06:15;152908.84;;;10.16;100.00
51287;BME280;37364;46.974;18.916;2023-04-30T04:08:45;152924.38;;;10.22;100.00
51287;BME280;37364;46.974;18.916;2023-04-30T04:11:16;152932.16;;;10.25;100.00
51287;BME280;37364;46.974;18.916;2023-04-30T04:13:46;152938.63;;;10.28;100.00
51287;BME280;37364;46.974;18.916;2023-04-30T04:16:19;152942.50;;;10.29;100.00
51287;BME280;37364;46.974;18.916;2023-04-30T04:18:50;152954.19;;;10.34;100.00
51287;BME280;37364;46.974;18.916;2023-04-30T04:21:20;152945.13;;;10.31;100.00
51287;BME280;37364;46.974;18.916;2023-04-30T04:23:50;152950.31;;;10.33;100.00
51287;BME280;37364;46.974;18.916;2023-04-30T04:26:21;152968.44;;;10.40;100.00
51287;BME280;37364;46.974;18.916;2023-04-30T04:28:51;152976.22;;;10.43;100.00
51287;BME280;37364;46.974;18.916;2023-04-30T04:31:24;152973.63;;;10.42;100.00
51287;BME280;37364;46.974;18.916;2023-04-30T04:33:55;152986.59;;;10.47;100.00
51287;BME280;37364;46.974;18.916;2023-04-30T04:36:27;152989.16;;;10.48;100.00
51287;BME280;37364;46.974;18.916;2023-04-30T04:38:57;152998.22;;;10.52;100.00
51287;BME280;37364;46.974;18.916;2023-04-30T04:41:28;153020.19;;;10.60;100.00
51287;BME280;37364;46.974;18.916;2023-04-30T04:43:59;153031.88;;;10.65;100.00
51287;BME280;37364;46.974;18.916;2023-04-30T04:46:34;153042.25;;;10.69;100.00
51287;BME280;37364;46.974;18.916;2023-04-30T04:49:04;153046.13;;;10.71;100.00
51287;BME280;37364;46.974;18.916;2023-04-30T04:51:34;153052.59;;;10.73;100.00
51287;BME280;37364;46.974;18.916;2023-04-30T04:54:06;153053.88;;;10.74;100.00
51287;BME280;37364;46.974;18.916;2023-04-30T04:56:36;153057.78;;;10.75;100.00
51287;BME280;37364;46.974;18.916;2023-04-30T04:59:06;153060.38;;;10.76;100.00
51287;BME280;37364;46.974;18.916;2023-04-30T05:01:40;153079.81;;;10.84;100.00
51287;BME280;37364;46.974;18.916;2023-04-30T05:04:10;153095.34;;;10.90;100.00
51287;BME280;37364;46.974;18.916;2023-04-30T05:06:41;153099.19;;;10.92;100.00
51287;BME280;37364;46.974;18.916;2023-04-30T05:09:13;153113.44;;;10.97;100.00
51287;BME280;37364;46.974;18.916;2023-04-30T05:11:43;153134.22;;;11.05;100.00
51287;BME280;37364;46.974;18.916;2023-04-30T05:14:15;153123.81;;;11.01;100.00
51287;BME280;37364;46.974;18.916;2023-04-30T05:16:49;153161.38;;;11.16;100.00
51287;BME280;37364;46.974;18.916;2023-04-30T05:19:20;153175.63;;;11.22;100.00
51287;BME280;37364;46.974;18.916;2023-04-30T05:21:50;153195.06;;;11.30;100.00
51287;BME280;37364;46.974;18.916;2023-04-30T05:24:20;153220.97;;;11.40;100.00
51287;BME280;37364;46.974;18.916;2023-04-30T05:26:51;153245.59;;;11.50;100.00
51287;BME280;37364;46.974;18.916;2023-04-30T05:29:21;153270.19;;;11.59;100.00
51287;BME280;37364;46.974;18.916;2023-04-30T05:31:53;153297.38;;;11.70;100.00
51287;BME280;37364;46.974;18.916;2023-04-30T05:34:24;153323.34;;;11.80;100.00
51287;BME280;37364;46.974;18.916;2023-04-30T05:36:54;153381.66;;;12.03;100.00
51287;BME280;37364;46.974;18.916;2023-04-30T05:39:24;153411.53;;;12.15;100.00
51287;BME280;37364;46.974;18.916;2023-04-30T05:41:54;153473.72;;;12.40;100.00
51287;BME280;37364;46.974;18.916;2023-04-30T05:44:24;153517.81;;;12.57;100.00
51287;BME280;37364;46.974;18.916;2023-04-30T05:46:59;153608.56;;;12.93;100.00
51287;BME280;37364;46.974;18.916;2023-04-30T05:49:29;153747.38;;;13.48;100.00
51287;BME280;37364;46.974;18.916;2023-04-30T05:52:02;153770.75;;;13.57;100.00
51287;BME280;37364;46.974;18.916;2023-04-30T05:54:32;153668.22;;;13.17;100.00
51287;BME280;37364;46.974;18.916;2023-04-30T05:57:03;153595.63;;;12.88;100.00
51287;BME280;37364;46.974;18.916;2023-04-30T05:59:33;153545.00;;;12.68;100.00
51287;BME280;37364;46.974;18.916;2023-04-30T06:02:06;153526.88;;;12.61;100.00
51287;BME280;37364;46.974;18.916;2023-04-30T06:04:36;153441.34;;;12.27;100.00
51287;BME280;37364;46.974;18.916;2023-04-30T06:07:06;153455.56;;;12.33;100.00
51287;BME280;37364;46.974;18.916;2023-04-30T06:09:36;153452.97;;;12.32;100.00
51287;BME280;37364;46.974;18.916;2023-04-30T06:12:07;153454.28;;;12.32;100.00
51287;BME280;37364;46.974;18.916;2023-04-30T06:14:37;153608.56;;;12.93;100.00
51287;BME280;37364;46.974;18.916;2023-04-30T06:17:13;153791.50;;;13.65;100.00
51287;BME280;37364;46.974;18.916;2023-04-30T06:19:44;153630.63;;;13.02;100.00
51287;BME280;37364;46.974;18.916;2023-04-30T06:22:14;153716.28;;;13.36;100.00
51287;BME280;37364;46.974;18.916;2023-04-30T06:24:44;153827.88;;;13.80;100.00
51287;BME280;37364;46.974;18.916;2023-04-30T06:27:14;153868.09;;;13.96;100.00
51287;BME280;37364;46.974;18.916;2023-04-30T06:29:44;153895.31;;;14.07;100.00
51287;BME280;37364;46.974;18.916;2023-04-30T06:32:17;153927.78;;;14.19;100.00
51287;BME280;37364;46.974;18.916;2023-04-30T06:34:47;153900.50;;;14.09;100.00
51287;BME280;37364;46.974;18.916;2023-04-30T06:37:18;153977.13;;;14.39;100.00
51287;BME280;37364;46.974;18.916;2023-04-30T06:39:48;153942.09;;;14.25;100.00
51287;BME280;37364;46.974;18.916;2023-04-30T06:42:19;153935.56;;;14.22;100.00
51287;BME280;37364;46.974;18.916;2023-04-30T06:44:50;154030.38;;;14.60;100.00
51287;BME280;37364;46.974;18.916;2023-04-30T06:47:24;154078.41;;;14.79;100.00
51287;BME280;37364;46.974;18.916;2023-04-30T06:49:54;154140.78;;;15.03;100.00
51287;BME280;37364;46.974;18.916;2023-04-30T06:52:24;154196.63;;;15.26;100.00
51287;BME280;37364;46.974;18.916;2023-04-30T06:54:54;154148.53;;;15.07;100.00
51287;BME280;37364;46.974;18.916;2023-04-30T06:57:25;154220.00;;;15.35;100.00
51287;BME280;37364;46.974;18.916;2023-04-30T06:59:55;154196.63;;;15.26;100.00
51287;BME280;37364;46.974;18.916;2023-04-30T07:02:29;154101.81;;;14.88;100.00
51287;BME280;37364;46.974;18.916;2023-04-30T07:04:59;154099.19;;;14.87;100.00
51287;BME280;37364;46.974;18.916;2023-04-30T07:07:29;154174.50;;;15.17;100.00
51287;BME280;37364;46.974;18.916;2023-04-30T07:10:01;154279.75;;;15.58;100.00
51287;BME280;37364;46.974;18.916;2023-04-30T07:12:31;154191.41;;;15.23;100.00
51287;BME280;37364;46.974;18.916;2023-04-30T07:15:01;154169.31;;;15.15;100.00
51287;BME280;37364;46.974;18.916;2023-04-30T07:17:35;154331.75;;;15.79;100.00
51287;BME280;37364;46.974;18.916;2023-04-30T07:20:09;154249.88;;;15.47;100.00
51287;BME280;37364;46.974;18.916;2023-04-30T07:22:40;154018.66;;;14.55;100.00
51287;BME280;37364;46.974;18.916;2023-04-30T07:25:12;154190.13;;;15.23;100.00
51287;BME280;37364;46.974;18.916;2023-04-30T07:27:42;154340.88;;;15.82;100.00
51287;BME280;37364;46.974;18.916;2023-04-30T07:30:13;154439.63;;;16.21;100.00
51287;BME280;37364;46.974;18.916;2023-04-30T07:32:46;154361.66;;;15.91;100.00
51287;BME280;37364;46.974;18.916;2023-04-30T07:35:17;154335.66;;;15.80;100.00
51287;BME280;37364;46.974;18.916;2023-04-30T07:37:47;154297.91;;;15.66;100.00
51287;BME280;37364;46.974;18.916;2023-04-30T07:40:18;154308.31;;;15.70;100.00
51287;BME280;37364;46.974;18.916;2023-04-30T07:43:03;154356.44;;;15.89;100.00
51287;BME280;37364;46.974;18.916;2023-04-30T07:45:35;154258.94;;;15.50;100.00
51287;BME280;37364;46.974;18.916;2023-04-30T07:48:08;154482.50;;;16.38;100.00
51287;BME280;37364;46.974;18.916;2023-04-30T07:50:38;154491.59;;;16.42;100.00
51287;BME280;37364;46.974;18.916;2023-04-30T07:53:08;154444.81;;;16.24;100.00
51287;BME280;37364;46.974;18.916;2023-04-30T07:55:38;154595.66;;;16.83;100.00
51287;BME280;37364;46.974;18.916;2023-04-30T07:58:09;154719.19;;;17.32;100.00
51287;BME280;37364;46.974;18.916;2023-04-30T08:00:39;154517.59;;;16.52;100.00
51287;BME280;37364;46.974;18.916;2023-04-30T08:03:12;154580.00;;;16.77;100.00
51287;BME280;37364;46.974;18.916;2023-04-30T08:05:43;154534.50;;;16.59;100.00
51287;BME280;37364;46.974;18.916;2023-04-30T08:08:13;154565.69;;;16.71;100.00
51287;BME280;37364;46.974;18.916;2023-04-30T08:10:43;154617.78;;;16.92;100.00
51287;BME280;37364;46.974;18.916;2023-04-30T08:13:13;154619.06;;;16.92;100.00
51287;BME280;37364;46.974;18.916;2023-04-30T08:15:45;154714.00;;;17.30;100.00
51287;BME280;37364;46.974;18.916;2023-04-30T08:18:18;154633.38;;;16.98;100.00
51287;BME280;37364;46.974;18.916;2023-04-30T08:20:48;154629.47;;;16.96;100.00
51287;BME280;37364;46.974;18.916;2023-04-30T08:23:18;154659.38;;;17.08;100.00
51287;BME280;37364;46.974;18.916;2023-04-30T08:25:49;154561.78;;;16.70;100.00
51287;BME280;37364;46.974;18.916;2023-04-30T08:28:20;154520.22;;;16.53;100.00
51287;BME280;37364;46.974;18.916;2023-04-30T08:30:50;154589.13;;;16.80;100.00
51287;BME280;37364;46.974;18.916;2023-04-30T08:33:26;154663.28;;;17.10;100.00
51287;BME280;37364;46.974;18.916;2023-04-30T08:35:56;154704.88;;;17.26;100.00
51287;BME280;37364;46.974;18.916;2023-04-30T08:38:27;154685.38;;;17.18;100.00
51287;BME280;37364;46.974;18.916;2023-04-30T08:41:04;154715.28;;;17.30;100.00
51287;BME280;37364;46.974;18.916;2023-04-30T08:43:38;154781.66;;;17.56;100.00
51287;BME280;37364;46.974;18.916;2023-04-30T08:46:10;154753.03;;;17.45;100.00
51287;BME280;37364;46.974;18.916;2023-04-30T08:48:43;154741.34;;;17.41;100.00
51287;BME280;37364;46.974;18.916;2023-04-30T08:51:14;154811.56;;;17.68;100.00
51287;BME280;37364;46.974;18.916;2023-04-30T08:53:45;154858.44;;;17.87;100.00
51287;BME280;37364;46.974;18.916;2023-04-30T08:56:16;154923.50;;;18.12;100.00
51287;BME280;37364;46.974;18.916;2023-04-30T08:58:50;154928.69;;;18.14;100.00
51287;BME280;37364;46.974;18.916;2023-04-30T09:01:21;154803.75;;;17.65;100.00
51287;BME280;37364;46.974;18.916;2023-04-30T09:03:58;154803.75;;;17.65;100.00
51287;BME280;37364;46.974;18.916;2023-04-30T09:06:29;154760.81;;;17.48;100.00
51287;BME280;37364;46.974;18.916;2023-04-30T09:09:08;154754.31;;;17.46;100.00
51287;BME280;37364;46.974;18.916;2023-04-30T09:11:39;154607.38;;;16.88;100.00
51287;BME280;37364;46.974;18.916;2023-04-30T09:14:09;154740.00;;;17.40;100.00
51287;BME280;37364;46.974;18.916;2023-04-30T09:16:47;154953.44;;;18.24;100.00
51287;BME280;37364;46.974;18.916;2023-04-30T09:19:25;154698.41;;;17.24;100.00
51287;BME280;37364;46.974;18.916;2023-04-30T09:21:56;154801.19;;;17.64;100.00
51287;BME280;37364;46.974;18.916;2023-04-30T09:24:44;154789.44;;;17.59;100.00
51287;BME280;37364;46.974;18.916;2023-04-30T09:27:16;154941.72;;;18.20;96.75
51287;BME280;37364;46.974;18.916;2023-04-30T09:29:47;154876.69;;;17.94;100.00
51287;BME280;37364;46.974;18.916;2023-04-30T09:32:18;154775.13;;;17.54;100.00
51287;BME280;37364;46.974;18.916;2023-04-30T09:34:51;154772.53;;;17.53;100.00
51287;BME280;37364;46.974;18.916;2023-04-30T09:37:21;154907.88;;;18.06;93.34
51287;BME280;37364;46.974;18.916;2023-04-30T09:39:53;154939.09;;;18.18;94.31
51287;BME280;37364;46.974;18.916;2023-04-30T09:42:26;154902.69;;;18.04;98.41
51287;BME280;37364;46.974;18.916;2023-04-30T09:44:57;154730.88;;;17.36;98.23
51287;BME280;37364;46.974;18.916;2023-04-30T09:47:29;154790.72;;;17.60;98.55
51287;BME280;37364;46.974;18.916;2023-04-30T09:50:03;154931.31;;;18.15;94.33
51287;BME280;37364;46.974;18.916;2023-04-30T09:52:33;155108.38;;;18.85;87.02
51287;BME280;37364;46.974;18.916;2023-04-30T09:55:05;154896.19;;;18.02;90.80
51287;BME280;37364;46.974;18.916;2023-04-30T09:57:36;155109.69;;;18.86;85.74
51287;BME280;37364;46.974;18.916;2023-04-30T10:00:08;154962.53;;;18.28;87.22
51287;BME280;37364;46.974;18.916;2023-04-30T10:02:39;154828.47;;;17.75;89.76
51287;BME280;37364;46.974;18.916;2023-04-30T10:05:12;155021.13;;;18.51;85.38
51287;BME280;37364;46.974;18.916;2023-04-30T10:07:43;155032.81;;;18.55;83.98
51287;BME280;37364;46.974;18.916;2023-04-30T10:10:14;155067.97;;;18.69;83.38
51287;BME280;37364;46.974;18.916;2023-04-30T10:12:47;154957.34;;;18.26;86.45
51287;BME280;37364;46.974;18.916;2023-04-30T10:15:23;154971.66;;;18.31;84.23
51287;BME280;37364;46.974;18.916;2023-04-30T10:17:58;154939.09;;;18.18;86.02
51287;BME280;37364;46.974;18.916;2023-04-30T10:20:34;155030.25;;;18.54;84.62
51287;BME280;37364;46.974;18.916;2023-04-30T10:23:08;154850.63;;;17.84;83.22
51287;BME280;37364;46.974;18.916;2023-04-30T10:25:38;154793.34;;;17.61;85.39
51287;BME280;37364;46.974;18.916;2023-04-30T10:28:10;154777.75;;;17.55;87.21
51287;BME280;37364;46.974;18.916;2023-04-30T10:30:40;154798.53;;;17.63;89.31
51287;BME280;37364;46.974;18.916;2023-04-30T10:33:19;154772.53;;;17.53;87.61
51287;BME280;37364;46.974;18.916;2023-04-30T10:35:58;154801.19;;;17.64;87.44
51287;BME280;37364;46.974;18.916;2023-04-30T10:38:31;154798.53;;;17.63;85.97
51287;BME280;37364;46.974;18.916;2023-04-30T10:41:05;154807.66;;;17.67;83.92
51287;BME280;37364;46.974;18.916;2023-04-30T10:43:36;155113.56;;;18.87;87.76
51287;BME280;37364;46.974;18.916;2023-04-30T10:46:07;155208.63;;;19.25;78.93
51287;BME280;37364;46.974;18.916;2023-04-30T10:48:37;155147.44;;;19.01;77.16
51287;BME280;37364;46.974;18.916;2023-04-30T10:51:10;155196.91;;;19.20;77.27
51287;BME280;37364;46.974;18.916;2023-04-30T10:53:41;155060.19;;;18.66;77.55
51287;BME280;37364;46.974;18.916;2023-04-30T10:56:13;154941.72;;;18.20;77.01
51287;BME280;37364;46.974;18.916;2023-04-30T10:58:43;155012.00;;;18.47;75.91
51287;BME280;37364;46.974;18.916;2023-04-30T11:01:14;154939.09;;;18.18;78.74
51287;BME280;37364;46.974;18.916;2023-04-30T11:04:03;154933.91;;;18.16;76.33
51287;BME280;37364;46.974;18.916;2023-04-30T11:07:00;155043.22;;;18.60;76.85
51287;BME280;37364;46.974;18.916;2023-04-30T11:09:43;155035.44;;;18.56;78.39
51287;BME280;37364;46.974;18.916;2023-04-30T11:12:15;155013.28;;;18.48;77.19
51287;BME280;37364;46.974;18.916;2023-04-30T11:15:04;154930.00;;;18.15;78.86
51287;BME280;37364;46.974;18.916;2023-04-30T11:17:36;154923.50;;;18.12;78.09
51287;BME280;37364;46.974;18.916;2023-04-30T11:20:11;154988.56;;;18.38;77.98
51287;BME280;37364;46.974;18.916;2023-04-30T11:22:46;155053.63;;;18.64;76.56
51287;BME280;37364;46.974;18.916;2023-04-30T11:25:18;155202.13;;;19.22;73.31
51287;BME280;37364;46.974;18.916;2023-04-30T11:27:49;155258.09;;;19.44;71.47
51287;BME280;37364;46.974;18.916;2023-04-30T11:30:20;155163.03;;;19.07;73.81
51287;BME280;37364;46.974;18.916;2023-04-30T11:32:51;155295.91;;;19.59;73.12
51287;BME280;37364;46.974;18.916;2023-04-30T11:35:22;155557.91;;;20.62;74.50
51287;BME280;37364;46.974;18.916;2023-04-30T11:37:55;155234.69;;;19.35;71.00
51287;BME280;37364;46.974;18.916;2023-04-30T11:40:28;155173.47;;;19.11;75.98
51287;BME280;37364;46.974;18.916;2023-04-30T11:43:03;155023.69;;;18.52;76.44
51287;BME280;37364;46.974;18.916;2023-04-30T11:45:34;155026.34;;;18.53;77.54
51287;BME280;37364;46.974;18.916;2023-04-30T11:48:05;155064.06;;;18.68;76.80
51287;BME280;37364;46.974;18.916;2023-04-30T11:50:41;155138.31;;;18.97;76.33
51287;BME280;37364;46.974;18.916;2023-04-30T11:53:14;154996.41;;;18.41;77.21
51287;BME280;37364;46.974;18.916;2023-04-30T11:55:44;154953.44;;;18.24;76.54
51287;BME280;37364;46.974;18.916;2023-04-30T11:58:14;155061.47;;;18.67;73.79
51287;BME280;37364;46.974;18.916;2023-04-30T12:00:45;155215.16;;;19.27;72.96
51287;BME280;37364;46.974;18.916;2023-04-30T12:03:16;155213.88;;;19.27;72.71
51287;BME280;37364;46.974;18.916;2023-04-30T12:05:47;155216.44;;;19.28;69.73
51287;BME280;37364;46.974;18.916;2023-04-30T12:08:20;155215.16;;;19.27;68.03
51287;BME280;37364;46.974;18.916;2023-04-30T12:10:50;155238.56;;;19.36;69.87
51287;BME280;37364;46.974;18.916;2023-04-30T12:13:20;155199.53;;;19.21;71.18
51287;BME280;37364;46.974;18.916;2023-04-30T12:15:59;155406.66;;;20.03;66.84
51287;BME280;37364;46.974;18.916;2023-04-30T12:18:32;155449.66;;;20.20;65.08
51287;BME280;37364;46.974;18.916;2023-04-30T12:21:03;155431.41;;;20.12;66.79
51287;BME280;37364;46.974;18.916;2023-04-30T12:23:36;155150.06;;;19.02;67.85
51287;BME280;37364;46.974;18.916;2023-04-30T12:26:06;155256.81;;;19.44;67.32
51287;BME280;37364;46.974;18.916;2023-04-30T12:28:36;155168.25;;;19.09;66.77
51287;BME280;37364;46.974;18.916;2023-04-30T12:31:07;155168.25;;;19.09;65.72
51287;BME280;37364;46.974;18.916;2023-04-30T12:33:38;155172.16;;;19.10;66.60
51287;BME280;37364;46.974;18.916;2023-04-30T12:36:09;155140.94;;;18.98;64.95
51287;BME280;37364;46.974;18.916;2023-04-30T12:38:45;155022.41;;;18.51;64.63
51287;BME280;37364;46.974;18.916;2023-04-30T12:41:15;154979.44;;;18.34;64.09
51287;BME280;37364;46.974;18.916;2023-04-30T12:43:47;155202.13;;;19.22;65.13
51287;BME280;37364;46.974;18.916;2023-04-30T12:46:25;155238.56;;;19.36;65.26
51287;BME280;37364;46.974;18.916;2023-04-30T12:48:56;155361.06;;;19.85;66.89
51287;BME280;37364;46.974;18.916;2023-04-30T12:51:26;155525.25;;;20.49;66.81
51287;BME280;37364;46.974;18.916;2023-04-30T12:53:59;155500.47;;;20.40;61.26
51287;BME280;37364;46.974;18.916;2023-04-30T12:56:30;155456.16;;;20.22;63.81
51287;BME280;37364;46.974;18.916;2023-04-30T12:59:00;155371.47;;;19.89;62.40